This is the latest recevied weather packets stored in our database for station/object SV2ASS-2. If no packets are shown the sender has not sent any weather packets the latest 10 day(s).
| Time | Temp. | Humidity | Pressure | Rain* | Wind** | Luminosity | Snow |
|---|---|---|---|---|---|---|---|
| 1777993064 | 25° C | 36% | 1016.9 hPa | - | - | - | - |
| 1777992164 | 25.56° C | 31% | 1016.9 hPa | - | - | - | - |
| 1777991263 | 25.56° C | 30% | 1017.1 hPa | - | - | - | - |
| 1777990363 | 25.56° C | 27% | 1017 hPa | - | - | - | - |
| 1777989463 | 26.11° C | 29% | 1017 hPa | - | - | - | - |
| 1777988563 | 26.11° C | 28% | 1017 hPa | - | - | - | - |
| 1777987663 | 26.67° C | 26% | 1017 hPa | - | - | - | - |
| 1777986763 | 26.11° C | 26% | 1017 hPa | - | - | - | - |
| 1777985863 | 25.56° C | 27% | 1017.1 hPa | - | - | - | - |
| 1777984963 | 25.56° C | 26% | 1017.3 hPa | - | - | - | - |
| 1777984063 | 26.67° C | 25% | 1017.5 hPa | - | - | - | - |
| 1777983163 | 26.11° C | 26% | 1017.5 hPa | - | - | - | - |
| 1777982263 | 26.11° C | 27% | 1017.6 hPa | - | - | - | - |
| 1777981362 | 26.67° C | 27% | 1017.8 hPa | - | - | - | - |
| 1777980462 | 26.11° C | 28% | 1017.8 hPa | - | - | - | - |
| 1777979562 | 25.56° C | 27% | 1017.9 hPa | - | - | - | - |
| 1777978662 | 25° C | 28% | 1018.2 hPa | - | - | - | - |
| 1777977762 | 25.56° C | 29% | 1018.2 hPa | - | - | - | - |
| 1777976862 | 25° C | 29% | 1018.4 hPa | - | - | - | - |
| 1777975962 | 24.44° C | 29% | 1018.6 hPa | - | - | - | - |
| 1777975062 | 23.89° C | 31% | 1018.7 hPa | - | - | - | - |
| 1777974162 | 24.44° C | 28% | 1018.9 hPa | - | - | - | - |
| 1777973262 | 22.78° C | 31% | 1018.9 hPa | - | - | - | - |
| 1777972362 | 22.22° C | 33% | 1019.2 hPa | - | - | - | - |
| 1777971465 | 21.67° C | 35% | 1019.3 hPa | - | - | - | - |
* Rain since midnight (hover to see other rain measurements)
** Current wind speed in m/s (hover to see current wind gust speed)